createdAt,value
2022-08-05T00:01:52.084Z,74.56
2022-08-05T00:04:21.205Z,74.48
2022-08-05T00:06:51.772Z,74.71
2022-08-05T00:09:20.506Z,74.87
2022-08-05T00:11:55.769Z,75.11
2022-08-05T00:14:31.450Z,75.46
2022-08-05T00:17:02.053Z,75.86
2022-08-05T00:19:33.263Z,75.99
2022-08-05T00:22:04.521Z,75.91
2022-08-05T00:24:32.691Z,76.02
2022-08-05T00:27:04.804Z,76.16
2022-08-05T00:29:38.655Z,76.20
2022-08-05T00:32:12.301Z,76.49
2022-08-05T00:35:04.623Z,76.53
2022-08-05T00:37:52.843Z,76.57
2022-08-05T00:40:28.002Z,76.56
2022-08-05T00:43:00.237Z,76.61
2022-08-05T00:45:38.254Z,76.28
2022-08-05T00:48:09.526Z,76.32
2022-08-05T00:50:42.068Z,76.73
2022-08-05T00:54:01.187Z,76.75
2022-08-05T00:56:05.727Z,76.93
2022-08-05T00:58:37.359Z,77.12
2022-08-05T01:01:08.916Z,77.04
2022-08-05T01:03:40.422Z,77.02
2022-08-05T01:06:13.977Z,77.01
2022-08-05T01:08:47.155Z,77.35
2022-08-05T01:11:33.438Z,77.28
2022-08-05T01:14:27.735Z,77.64
2022-08-05T01:17:07.155Z,77.75
2022-08-05T01:20:02.424Z,77.69
2022-08-05T01:22:46.884Z,77.81
2022-08-05T01:25:41.021Z,78.34
2022-08-05T01:28:28.612Z,78.20
2022-08-05T01:31:12.603Z,78.54
2022-08-05T01:34:01.745Z,78.65
2022-08-05T01:36:36.832Z,78.82
2022-08-05T01:39:13.858Z,78.72
2022-08-05T01:41:44.472Z,78.76
2022-08-05T01:44:15.816Z,79.09
2022-08-05T01:46:46.738Z,78.99
2022-08-05T01:49:23.753Z,79.50
2022-08-05T01:51:59.351Z,79.32
2022-08-05T01:54:46.282Z,79.33
2022-08-05T01:58:10.465Z,79.56
2022-08-05T02:00:12.905Z,79.73
2022-08-05T02:02:53.624Z,79.81
2022-08-05T02:05:29.842Z,79.69
2022-08-05T02:08:01.331Z,79.64
2022-08-05T02:10:36.679Z,79.68
2022-08-05T02:13:17.951Z,79.91
2022-08-05T02:15:55.230Z,80.10
2022-08-05T02:18:37.883Z,80.24
2022-08-05T02:21:15.649Z,80.38
2022-08-05T02:23:48.681Z,80.47
2022-08-05T02:26:26.622Z,80.60
2022-08-05T02:28:58.312Z,80.91
2022-08-05T02:31:34.991Z,81.02
2022-08-05T02:34:09.318Z,81.10
2022-08-05T02:36:46.193Z,81.00
2022-08-05T02:39:21.565Z,80.99
2022-08-05T02:42:00.940Z,81.07
2022-08-05T02:44:32.877Z,81.47
2022-08-05T02:47:03.228Z,81.74
2022-08-05T02:49:37.891Z,81.83
2022-08-05T02:52:29.530Z,81.77
2022-08-05T02:55:01.608Z,81.83
2022-08-05T02:58:09.235Z,81.96
2022-08-05T03:00:25.483Z,82.09
2022-08-05T03:02:57.739Z,81.99
2022-08-05T03:06:56.335Z,82.21
2022-08-05T03:08:16.552Z,82.33
2022-08-05T03:11:55.692Z,82.24
2022-08-05T03:13:51.072Z,82.32
2022-08-05T03:16:27.578Z,82.40
2022-08-05T03:18:56.132Z,82.39
2022-08-05T03:21:24.006Z,82.37
2022-08-05T03:23:58.835Z,82.54
2022-08-05T03:26:32.130Z,82.80
2022-08-05T03:29:01.009Z,82.66
2022-08-05T03:31:57.262Z,82.89
2022-08-05T03:34:19.338Z,82.88
2022-08-05T03:36:52.599Z,82.74
2022-08-05T03:39:26.987Z,82.61
2022-08-05T03:41:56.955Z,82.63
2022-08-05T03:44:25.834Z,82.79
2022-08-05T03:46:57.334Z,82.89
2022-08-05T03:49:31.197Z,82.85
2022-08-05T03:52:48.708Z,82.97
2022-08-05T03:56:04.361Z,82.85
2022-08-05T03:58:12.299Z,82.75
2022-08-05T04:00:42.088Z,82.69
2022-08-05T04:03:26.764Z,82.64
2022-08-05T04:05:59.074Z,82.59
2022-08-05T04:08:36.399Z,82.67
2022-08-05T04:11:08.658Z,82.67
2022-08-05T04:13:50.170Z,82.71
2022-08-05T04:16:25.445Z,82.80
2022-08-05T04:19:00.424Z,82.84
2022-08-05T04:22:05.881Z,82.79
2022-08-05T04:24:18.864Z,82.79
2022-08-05T04:26:47.895Z,82.59
2022-08-05T04:29:15.958Z,82.43
2022-08-05T04:31:43.985Z,82.32
2022-08-05T04:34:31.189Z,82.15
2022-08-05T04:37:01.034Z,81.76
2022-08-05T04:39:32.429Z,81.40
2022-08-05T04:42:03.985Z,81.10
2022-08-05T04:44:31.986Z,80.77
2022-08-05T04:47:00.145Z,80.41
2022-08-05T04:50:03.098Z,79.76
2022-08-05T04:52:28.762Z,79.20
2022-08-05T04:54:57.772Z,78.88
2022-08-05T04:57:29.298Z,78.02
2022-08-05T05:00:06.848Z,77.31
2022-08-05T05:02:41.861Z,76.76
2022-08-05T05:05:26.642Z,75.96
2022-08-05T05:08:30.301Z,75.26
2022-08-05T05:10:58.613Z,74.07
2022-08-05T05:13:32.325Z,73.49
2022-08-05T05:16:11.506Z,72.83
2022-08-05T05:18:39.653Z,72.64
2022-08-05T05:21:07.640Z,71.40
2022-08-05T05:23:39.127Z,70.84
2022-08-05T05:26:28.628Z,70.36
2022-08-05T05:29:02.394Z,69.80
2022-08-05T05:34:02.624Z,69.08
2022-08-05T05:36:32.228Z,68.84
2022-08-05T05:39:00.452Z,68.69
2022-08-05T05:41:40.732Z,68.40
2022-08-05T05:44:35.949Z,68.45
2022-08-05T05:47:04.092Z,67.16
2022-08-05T05:49:35.805Z,65.57
2022-08-05T05:52:08.775Z,61.94
2022-08-05T05:54:50.495Z,58.93
2022-08-05T05:57:20.276Z,57.29
2022-08-05T05:59:48.977Z,56.26
2022-08-05T06:02:32.422Z,54.01
2022-08-05T06:05:10.470Z,53.21
2022-08-05T06:08:01.272Z,52.94
2022-08-05T06:10:36.482Z,52.32
2022-08-05T06:13:05.430Z,52.22
2022-08-05T06:16:29.348Z,52.34
2022-08-05T06:18:31.436Z,52.05
2022-08-05T06:21:00.832Z,51.24
2022-08-05T06:23:32.100Z,51.09
2022-08-05T06:26:21.537Z,50.94
2022-08-05T06:28:51.996Z,50.86
2022-08-05T06:31:22.374Z,51.79
2022-08-05T06:34:07.319Z,50.78
2022-08-05T06:36:56.778Z,50.50
2022-08-05T06:39:26.914Z,50.55
2022-08-05T06:42:03.925Z,49.25
2022-08-05T06:44:32.366Z,49.47
2022-08-05T06:47:02.230Z,48.97
2022-08-05T06:50:00.480Z,47.91
2022-08-05T06:52:37.120Z,48.14
2022-08-05T06:55:07.515Z,48.91
2022-08-05T06:57:57.837Z,48.53
2022-08-05T07:00:24.884Z,48.79
2022-08-05T07:02:54.333Z,48.29
2022-08-05T07:05:36.991Z,48.85
2022-08-05T07:08:10.967Z,48.64
2022-08-05T07:10:53.352Z,48.54
2022-08-05T07:13:57.611Z,48.67
2022-08-05T07:18:00.996Z,48.79
2022-08-05T07:20:10.927Z,48.03
2022-08-05T07:22:28.943Z,48.35
2022-08-05T07:24:59.358Z,47.79
2022-08-05T07:27:57.770Z,47.37
2022-08-05T07:30:23.864Z,47.65
2022-08-05T07:32:56.488Z,47.29
2022-08-05T07:35:55.724Z,47.33
2022-08-05T07:38:32.761Z,46.71
2022-08-05T07:42:08.288Z,46.08
2022-08-05T07:43:57.049Z,46.10
2022-08-05T07:46:27.032Z,45.78
2022-08-05T07:49:02.710Z,45.75
2022-08-05T07:51:37.079Z,45.61
2022-08-05T07:54:10.155Z,45.77
2022-08-05T07:57:13.282Z,44.89
2022-08-05T07:59:38.566Z,45.64
2022-08-05T08:02:16.483Z,45.58
2022-08-05T08:04:47.697Z,45.03
2022-08-05T08:07:22.678Z,44.29
2022-08-05T08:09:54.892Z,43.67
2022-08-05T08:12:35.036Z,43.65
2022-08-05T08:15:15.636Z,43.37
2022-08-05T08:17:49.672Z,43.23
2022-08-05T08:20:44.466Z,43.45
2022-08-05T08:24:02.164Z,43.76
2022-08-05T08:26:04.637Z,42.84
2022-08-05T08:28:37.035Z,42.87
2022-08-05T08:31:14.587Z,42.69
2022-08-05T08:33:45.889Z,41.69
2022-08-05T08:36:47.553Z,41.14
2022-08-05T08:39:03.101Z,41.78
2022-08-05T08:41:52.028Z,41.79
2022-08-05T08:45:24.938Z,41.01
2022-08-05T08:47:47.825Z,40.21
2022-08-05T08:50:31.199Z,40.91
2022-08-05T08:53:11.802Z,39.84
2022-08-05T08:56:02.666Z,40.23
2022-08-05T08:58:37.562Z,40.23
2022-08-05T09:01:15.863Z,39.27
2022-08-05T09:03:55.650Z,39.16
2022-08-05T09:06:29.733Z,40.08
2022-08-05T09:09:01.400Z,40.64
2022-08-05T09:11:52.730Z,39.81
2022-08-05T09:14:56.298Z,38.85
2022-08-05T09:17:42.442Z,37.60
2022-08-05T09:20:02.443Z,36.69
2022-08-05T09:23:18.667Z,36.47
2022-08-05T09:26:02.193Z,38.06
2022-08-05T09:28:34.352Z,38.58
2022-08-05T09:31:44.208Z,38.01
2022-08-05T09:34:01.428Z,37.80
2022-08-05T09:36:38.440Z,36.68
2022-08-05T09:39:27.629Z,37.28
2022-08-05T09:42:13.641Z,37.91
2022-08-05T09:44:56.728Z,37.61
2022-08-05T09:47:36.565Z,37.66
2022-08-05T09:50:37.392Z,36.46
2022-08-05T09:53:07.149Z,36.61
2022-08-05T09:55:57.335Z,36.31
2022-08-05T09:58:26.476Z,35.54
2022-08-05T10:01:13.446Z,36.13
2022-08-05T10:04:10.652Z,34.94
2022-08-05T10:06:40.791Z,33.81
2022-08-05T10:09:27.238Z,33.45
2022-08-05T10:12:18.933Z,33.58
2022-08-05T10:15:17.089Z,32.66
2022-08-05T10:18:10.658Z,32.86
2022-08-05T10:20:47.665Z,33.53
2022-08-05T10:23:22.171Z,33.27
2022-08-05T10:26:14.062Z,33.89
2022-08-05T10:28:44.968Z,33.16
2022-08-05T10:32:48.096Z,32.17
2022-08-05T10:34:09.546Z,31.33
2022-08-05T10:36:39.765Z,31.33
2022-08-05T10:39:15.186Z,31.41
2022-08-05T10:42:00.554Z,31.59
2022-08-05T10:44:31.474Z,31.75
2022-08-05T10:46:59.579Z,32.24
2022-08-05T10:49:32.949Z,33.31
2022-08-05T10:52:05.543Z,32.95
2022-08-05T10:55:16.046Z,32.37
2022-08-05T10:57:47.148Z,33.00
2022-08-05T11:00:24.278Z,33.35
2022-08-05T11:03:25.314Z,32.75
2022-08-05T11:06:08.293Z,31.51
2022-08-05T11:08:39.254Z,30.96
2022-08-05T11:11:44.831Z,31.15
2022-08-05T11:14:57.683Z,31.18
2022-08-05T11:17:57.696Z,29.99
2022-08-05T11:20:41.646Z,29.43
2022-08-05T11:24:05.602Z,29.36
2022-08-05T11:26:49.557Z,29.96
2022-08-05T11:29:59.309Z,30.61
2022-08-05T11:32:30.190Z,31.19
2022-08-05T11:34:58.126Z,30.95
2022-08-05T11:38:30.134Z,30.43
2022-08-05T11:41:03.569Z,29.78
2022-08-05T11:44:04.870Z,30.59
2022-08-05T11:47:10.329Z,30.90
2022-08-05T11:49:29.438Z,30.73
2022-08-05T11:52:11.149Z,30.38
2022-08-05T11:54:43.401Z,30.30
2022-08-05T11:57:25.363Z,30.82
2022-08-05T11:59:55.284Z,30.43
2022-08-05T12:02:33.106Z,31.36
2022-08-05T12:05:08.154Z,31.22
2022-08-05T12:08:03.609Z,31.15
2022-08-05T12:10:45.721Z,31.35
2022-08-05T12:13:28.172Z,30.95
2022-08-05T12:16:14.133Z,31.23
2022-08-05T12:18:52.202Z,32.55
2022-08-05T12:21:31.828Z,31.85
2022-08-05T12:24:08.817Z,31.56
2022-08-05T12:26:38.145Z,31.59
2022-08-05T12:29:26.704Z,31.41
2022-08-05T12:31:56.841Z,31.68
2022-08-05T12:34:31.595Z,31.94
2022-08-05T12:37:17.040Z,31.57
2022-08-05T12:39:53.949Z,31.35
2022-08-05T12:42:25.264Z,31.08
2022-08-05T12:45:02.304Z,32.84
2022-08-05T12:47:31.198Z,33.03
2022-08-05T12:50:04.853Z,33.67
2022-08-05T12:52:42.287Z,33.61
2022-08-05T12:55:22.457Z,32.12
2022-08-05T12:58:51.432Z,31.92
2022-08-05T13:02:00.627Z,32.17
2022-08-05T13:03:41.475Z,32.38
2022-08-05T13:06:16.449Z,32.20
2022-08-05T13:08:52.353Z,32.36
2022-08-05T13:12:01.139Z,32.61
2022-08-05T13:14:19.355Z,31.76
2022-08-05T13:16:58.209Z,31.55
2022-08-05T13:19:50.922Z,32.19
2022-08-05T13:22:29.180Z,32.45
2022-08-05T13:25:05.159Z,31.73
2022-08-05T13:27:38.266Z,31.43
2022-08-05T13:30:33.987Z,31.91
2022-08-05T13:33:00.872Z,31.42
2022-08-05T13:35:43.100Z,30.94
2022-08-05T13:38:31.206Z,30.81
2022-08-05T13:41:04.351Z,31.21
2022-08-05T13:43:43.557Z,31.87
2022-08-05T13:46:37.940Z,31.82
2022-08-05T13:49:10.215Z,31.59
2022-08-05T13:51:46.332Z,32.10
2022-08-05T13:54:24.822Z,32.29
2022-08-05T13:56:56.208Z,32.72
2022-08-05T13:59:26.889Z,32.64
2022-08-05T14:01:59.850Z,32.66
2022-08-05T14:04:51.570Z,32.88
2022-08-05T14:08:00.441Z,32.74
2022-08-05T14:10:28.793Z,32.45
2022-08-05T14:12:59.829Z,32.68
2022-08-05T14:16:09.044Z,31.83
2022-08-05T14:18:18.515Z,32.42
2022-08-05T14:20:54.498Z,32.19
2022-08-05T14:23:24.834Z,31.87
2022-08-05T14:25:58.604Z,31.36
2022-08-05T14:28:29.826Z,31.10
2022-08-05T14:31:00.899Z,30.87
2022-08-05T14:33:57.067Z,30.32
2022-08-05T14:36:21.704Z,29.91
2022-08-05T14:38:51.601Z,29.95
2022-08-05T14:41:20.363Z,31.16
2022-08-05T14:44:01.957Z,30.91
2022-08-05T14:46:37.822Z,30.28
2022-08-05T14:49:08.190Z,29.02
2022-08-05T14:51:42.830Z,28.71
2022-08-05T14:54:28.990Z,29.52
2022-08-05T14:57:00.606Z,30.54
2022-08-05T14:59:35.856Z,30.60
2022-08-05T15:02:15.964Z,29.58
2022-08-05T15:04:47.615Z,29.84
2022-08-05T15:08:08.765Z,29.70
2022-08-05T15:10:05.408Z,30.03
2022-08-05T15:12:59.873Z,28.83
2022-08-05T15:15:55.137Z,29.40
2022-08-05T15:18:17.311Z,30.04
2022-08-05T15:20:46.041Z,30.30
2022-08-05T15:23:14.442Z,30.88
2022-08-05T15:25:52.180Z,30.72
2022-08-05T15:28:24.463Z,29.65
2022-08-05T15:30:56.716Z,30.06
2022-08-05T15:34:05.838Z,30.14
2022-08-05T15:36:17.519Z,29.78
2022-08-05T15:38:58.298Z,29.50
2022-08-05T15:41:57.413Z,29.63
2022-08-05T15:44:30.130Z,30.28
2022-08-05T15:47:01.814Z,30.79
2022-08-05T15:49:40.845Z,30.06
2022-08-05T15:52:51.549Z,29.58
2022-08-05T15:55:15.975Z,29.19
2022-08-05T15:57:45.269Z,28.33
2022-08-05T16:00:16.880Z,28.35
2022-08-05T16:02:54.769Z,27.95
2022-08-05T16:05:23.021Z,27.46
2022-08-05T16:07:57.198Z,27.73
2022-08-05T16:10:26.830Z,28.80
2022-08-05T16:12:55.887Z,30.20
2022-08-05T16:15:24.677Z,31.74
2022-08-05T16:18:00.366Z,33.34
2022-08-05T16:20:28.406Z,34.81
2022-08-05T16:22:57.493Z,35.79
2022-08-05T16:25:32.189Z,36.23
2022-08-05T16:28:05.446Z,36.77
2022-08-05T16:30:36.128Z,37.03
2022-08-05T16:33:04.932Z,37.67
2022-08-05T16:35:33.783Z,38.06
2022-08-05T16:38:24.510Z,37.97
2022-08-05T16:41:01.276Z,38.41
2022-08-05T16:43:32.720Z,38.69
2022-08-05T16:46:23.486Z,39.00
2022-08-05T16:48:51.697Z,39.35
2022-08-05T16:51:20.825Z,39.44
2022-08-05T16:54:06.329Z,39.58
2022-08-05T16:56:40.446Z,40.03
2022-08-05T16:59:10.597Z,40.03
2022-08-05T17:01:54.327Z,40.33
2022-08-05T17:04:28.498Z,40.53
2022-08-05T17:07:01.814Z,40.64
2022-08-05T17:09:38.869Z,40.86
2022-08-05T17:12:22.712Z,41.15
2022-08-05T17:15:09.313Z,41.21
2022-08-05T17:17:42.083Z,41.47
2022-08-05T17:20:11.555Z,41.63
2022-08-05T17:22:43.027Z,41.77
2022-08-05T17:25:33.408Z,41.78
2022-08-05T17:28:01.337Z,41.94
2022-08-05T17:30:29.400Z,42.18
2022-08-05T17:32:57.354Z,42.42
2022-08-05T17:35:25.311Z,42.65
2022-08-05T17:38:04.937Z,42.92
2022-08-05T17:40:33.175Z,43.22
2022-08-05T17:43:02.653Z,43.99
2022-08-05T17:45:38.630Z,45.91
2022-08-05T17:48:08.336Z,46.81
2022-08-05T17:50:36.436Z,48.01
2022-08-05T17:53:08.500Z,48.75
2022-08-05T17:55:39.999Z,50.13
2022-08-05T17:58:11.231Z,50.29
2022-08-05T18:00:45.228Z,50.88
2022-08-05T18:03:56.268Z,51.39
2022-08-05T18:06:12.369Z,51.85
2022-08-05T18:08:52.641Z,52.29
2022-08-05T18:11:24.113Z,52.77
2022-08-05T18:14:07.418Z,53.28
2022-08-05T18:16:51.529Z,53.81
2022-08-05T18:19:22.730Z,54.20
2022-08-05T18:22:07.201Z,54.33
2022-08-05T18:24:39.361Z,54.76
2022-08-05T18:27:12.931Z,55.33
2022-08-05T18:29:53.978Z,55.54
2022-08-05T18:32:28.179Z,55.83
2022-08-05T18:34:58.238Z,56.26
2022-08-05T18:37:34.729Z,56.08
2022-08-05T18:41:50.793Z,55.08
2022-08-05T18:42:59.030Z,54.78
2022-08-05T18:45:41.392Z,55.91
2022-08-05T18:48:11.447Z,56.53
2022-08-05T18:52:02.766Z,57.06
2022-08-05T18:53:52.523Z,57.83
2022-08-05T18:56:21.925Z,57.92
2022-08-05T18:58:55.005Z,58.33
2022-08-05T19:01:47.263Z,58.38
2022-08-05T19:04:24.043Z,58.83
2022-08-05T19:06:53.604Z,59.03
2022-08-05T19:09:22.137Z,59.19
2022-08-05T19:12:01.140Z,59.57
2022-08-05T19:14:53.450Z,60.14
2022-08-05T19:17:19.801Z,60.25
2022-08-05T19:19:50.206Z,60.54
2022-08-05T19:22:18.892Z,60.63
2022-08-05T19:24:56.503Z,60.93
2022-08-05T19:27:30.198Z,60.87
2022-08-05T19:29:59.031Z,60.90
2022-08-05T19:32:27.800Z,61.24
2022-08-05T19:34:59.058Z,61.76
2022-08-05T19:38:04.101Z,61.69
2022-08-05T19:40:24.259Z,62.02
2022-08-05T19:43:05.053Z,62.37
2022-08-05T19:45:36.790Z,62.52
2022-08-05T19:48:06.377Z,62.67
2022-08-05T19:50:35.340Z,62.73
2022-08-05T19:53:09.425Z,62.68
2022-08-05T19:56:15.522Z,62.87
2022-08-05T19:59:21.357Z,63.10
2022-08-05T20:01:52.737Z,63.10
2022-08-05T20:04:21.563Z,63.00
2022-08-05T20:06:51.979Z,63.39
2022-08-05T20:09:20.297Z,64.04
2022-08-05T20:11:48.526Z,64.09
2022-08-05T20:14:26.579Z,64.11
2022-08-05T20:16:56.337Z,64.16
2022-08-05T20:19:25.486Z,64.78
2022-08-05T20:22:04.258Z,65.26
2022-08-05T20:24:34.595Z,65.62
2022-08-05T20:27:03.364Z,65.48
2022-08-05T20:29:39.600Z,65.45
2022-08-05T20:32:07.993Z,65.57
2022-08-05T20:34:38.400Z,65.20
2022-08-05T20:37:06.473Z,64.96
2022-08-05T20:39:46.167Z,65.22
2022-08-05T20:42:21.592Z,65.92
2022-08-05T20:44:50.038Z,65.84
2022-08-05T20:47:18.531Z,64.86
2022-08-05T20:49:47.224Z,65.13
2022-08-05T20:52:19.380Z,65.38
2022-08-05T20:55:55.225Z,65.10
2022-08-05T20:57:43.319Z,65.08
2022-08-05T21:00:41.479Z,65.21
2022-08-05T21:03:07.301Z,65.04
2022-08-05T21:05:54.034Z,64.71
2022-08-05T21:08:32.952Z,64.81
2022-08-05T21:11:12.294Z,65.10
2022-08-05T21:13:47.945Z,64.94
2022-08-05T21:16:29.157Z,64.59
2022-08-05T21:19:01.227Z,64.71
2022-08-05T21:21:39.267Z,65.30
2022-08-05T21:24:15.265Z,65.21
2022-08-05T21:26:53.325Z,64.70
2022-08-05T21:29:32.125Z,64.70
2022-08-05T21:32:03.632Z,64.62
2022-08-05T21:34:33.089Z,64.48
2022-08-05T21:37:05.676Z,64.35
2022-08-05T21:39:34.655Z,64.26
2022-08-05T21:42:06.923Z,64.24
2022-08-05T21:44:54.896Z,64.28
2022-08-05T21:47:54.777Z,64.31
2022-08-05T21:50:16.492Z,64.37
2022-08-05T21:52:47.364Z,64.39
2022-08-05T21:55:17.649Z,64.29
2022-08-05T21:58:06.487Z,64.43
2022-08-05T22:00:34.788Z,64.53
2022-08-05T22:03:04.071Z,64.62
2022-08-05T22:05:48.373Z,64.74
2022-08-05T22:08:22.308Z,64.88
2022-08-05T22:10:53.605Z,65.03
2022-08-05T22:14:34.342Z,65.10
2022-08-05T22:16:32.129Z,65.31
2022-08-05T22:18:58.645Z,65.39
2022-08-05T22:21:27.092Z,65.59
2022-08-05T22:24:40.593Z,65.63
2022-08-05T22:27:22.133Z,65.94
2022-08-05T22:29:50.348Z,66.04
2022-08-05T22:32:23.071Z,66.27
2022-08-05T22:34:52.199Z,66.85
2022-08-05T22:37:20.872Z,67.54
2022-08-05T22:39:50.410Z,68.30
2022-08-05T22:42:25.299Z,68.69
2022-08-05T22:44:56.946Z,69.16
2022-08-05T22:47:30.055Z,69.90
2022-08-05T22:50:21.548Z,70.04
2022-08-05T22:52:52.408Z,70.23
2022-08-05T22:55:23.085Z,70.30
2022-08-05T22:57:53.081Z,70.45
2022-08-05T23:00:23.432Z,70.80
2022-08-05T23:02:53.764Z,70.74
2022-08-05T23:05:23.188Z,71.18
2022-08-05T23:07:52.560Z,71.40
2022-08-05T23:10:23.840Z,71.62
2022-08-05T23:12:54.391Z,71.99
2022-08-05T23:15:37.726Z,72.50
2022-08-05T23:18:15.998Z,72.50
2022-08-05T23:20:44.419Z,72.46
2022-08-05T23:23:13.098Z,72.49
2022-08-05T23:25:54.795Z,72.84
2022-08-05T23:28:28.852Z,73.27
2022-08-05T23:31:16.433Z,72.90
2022-08-05T23:34:04.030Z,72.71
2022-08-05T23:36:40.054Z,72.79
2022-08-05T23:39:32.052Z,73.05
2022-08-05T23:42:08.673Z,72.79
2022-08-05T23:44:42.888Z,72.75
2022-08-05T23:47:15.589Z,72.58
2022-08-05T23:49:45.704Z,72.80
2022-08-05T23:52:26.695Z,72.92
2022-08-05T23:54:58.079Z,72.39
2022-08-05T23:57:28.915Z,72.12
